Terminal Aerodrome Forecast
Issued by NWS Tulsa, OK

Home | Current Version | Previous Version | Text Only | Print | Product List | Glossary On
Versions: 1 2 3 4 5 6 7 8 9 10 11 12 13 14 15
000
FTUS44 KTSA 311122
TAFFSM
TAF
KFSM 311122Z 3112/0112 07003KT P6SM SCT250
     FM311800 03005KT P6SM VCTS SCT050CB PROB30 3121/0103 3SM -TSRA
      BKN040CB
     FM010300 04005KT P6SM VCSH BKN050 BKN100=

USA.gov is the U.S. government's official web portal to all federal, state and local government web resources and services.